MST,Max TemperatureF,Mean TemperatureF,Min TemperatureF,Max Dew PointF,MeanDew PointF,Min DewpointF,Max Humidity, Mean Humidity, Min Humidity, Max Sea Level PressureIn, Mean Sea Level PressureIn, Min Sea Level PressureIn, Max VisibilityMiles, Mean VisibilityMiles, Min VisibilityMiles, Max Wind SpeedMPH, Mean Wind SpeedMPH, Max Gust SpeedMPH,PrecipitationIn, CloudCover, Events, WindDirDegrees
2013-8-1,110,97,84,53,45,37,27,18,9,29.82,29.76,29.68,10,10,10,24,9,30,0.00,3,,174
2013-8-2,106,94,82,64,51,38,51,31,11,29.81,29.75,29.71,10,10,10,20,10,23,0.00,4,,169
2013-8-3,108,93,77,54,43,23,39,22,5,29.86,29.79,29.72,10,10,10,16,8,22,0.00,2,,171
2013-8-4,109,95,80,55,43,23,42,24,5,29.86,29.80,29.73,10,10,10,13,6,17,0.00,4,,182
2013-8-5,102,91,80,73,53,26,59,35,11,29.88,29.82,29.78,10,10,9,24,12,29,0.00,6,,165
2013-8-6,104,94,83,71,61,55,61,41,21,29.91,29.84,29.79,10,10,10,20,10,24,0.00,3,,182
2013-8-7,107,94,80,66,44,12,54,29,3,29.90,29.84,29.77,10,10,10,12,5,18,0.00,3,,224
2013-8-8,108,93,77,53,36,21,39,22,5,29.83,29.77,29.70,10,10,10,14,6,17,0.00,1,,251
2013-8-9,107,92,77,51,37,23,35,20,5,29.79,29.75,29.70,10,10,10,14,5,16,0.00,1,,232
2013-8-10,103,90,76,63,45,19,58,32,6,29.87,29.81,29.76,10,10,10,18,9,24,0.00,0,,160
2013-8-11,105,90,75,53,37,20,36,21,5,29.87,29.80,29.71,10,10,10,10,4,16,0.00,0,,56
2013-8-12,106,91,76,55,44,32,43,26,8,29.84,29.78,29.72,10,10,10,12,4,15,0.00,0,,180
2013-8-13,106,91,76,58,46,34,29,22,14,29.88,29.80,29.74,10,10,10,18,6,26,0.00,2,,168
2013-8-14,108,93,77,74,58,46,85,49,13,29.85,29.78,29.70,10,10,9,16,6,18,0.00,2,,184
2013-8-15,111,99,87,64,56,50,46,30,14,29.84,29.78,29.71,10,10,10,14,7,18,0.00,3,,183
2013-8-16,112,100,88,63,58,52,43,29,14,29.83,29.77,29.70,10,10,10,18,6,21,0.00,1,,189
2013-8-17,112,100,87,63,54,45,36,25,13,29.83,29.75,29.65,10,10,10,23,7,25,0.00,2,,182
2013-8-18,112,102,92,64,57,52,39,27,15,29.80,29.74,29.66,10,10,7,28,9,32,0.00,4,,162
2013-8-19,110,101,91,61,56,46,33,24,14,29.83,29.76,29.69,10,10,10,16,7,20,0.00,6,,207
2013-8-20,111,98,84,67,55,47,48,31,13,29.80,29.74,29.66,10,10,10,24,6,28,0.00,4,,183
2013-8-21,111,100,88,68,58,49,44,29,13,29.81,29.76,29.70,10,10,10,20,7,24,0.00,5,,155
2013-8-22,107,93,79,73,67,61,59,42,25,29.85,29.78,29.71,10,9,2,45,12,54,T,5,Rain-Thunderstorm,142
2013-8-23,104,93,81,70,66,60,65,45,25,29.79,29.73,29.64,10,10,10,17,9,22,0.00,4,,146
2013-8-24,100,89,77,75,69,61,74,52,30,29.84,29.79,29.73,10,10,5,26,14,30,0.02,4,Rain-Thunderstorm,149
2013-8-25,88,84,79,73,69,65,74,63,51,29.92,29.88,29.84,10,10,7,14,6,17,0.00,8,Rain,84
2013-8-26,97,86,75,72,69,65,82,59,35,29.91,29.85,29.76,10,10,10,20,10,25,T,5,Rain,328
2013-8-27,103,92,81,68,66,61,63,45,27,29.79,29.73,29.65,10,10,10,12,6,15,0.00,3,,331
2013-8-28,107,95,82,72,67,61,65,44,23,29.86,29.74,29.67,10,10,4,36,8,43,T,3,Rain-Thunderstorm,202
2013-8-29,94,86,78,76,73,70,79,64,49,29.98,29.92,29.84,10,10,5,29,9,33,0.20,6,Rain-Thunderstorm,122
2013-8-30,97,90,83,76,71,65,79,58,36,29.98,29.92,29.86,10,10,10,10,4,14,T,6,,60
2013-8-31,103,95,86,73,67,63,63,45,27,29.90,29.83,29.74,10,9,2,25,5,36,0.00,6,,198